sensor_id;sensor_type;location;lat;lon;timestamp;temperature;humidity
11280;DHT22;5696;50.928;6.960;2022-11-20T00:00:25;4.50;99.90
11280;DHT22;5696;50.928;6.960;2022-11-20T06:35:31;4.60;99.90
11280;DHT22;5696;50.928;6.960;2022-11-20T06:37:57;4.60;99.90
11280;DHT22;5696;50.928;6.960;2022-11-20T06:40:23;4.50;99.90
11280;DHT22;5696;50.928;6.960;2022-11-20T06:42:48;4.50;99.90
11280;DHT22;5696;50.928;6.960;2022-11-20T06:45:14;4.40;99.90
11280;DHT22;5696;50.928;6.960;2022-11-20T06:47:39;4.40;99.90
11280;DHT22;5696;50.928;6.960;2022-11-20T06:50:05;4.40;99.90
11280;DHT22;5696;50.928;6.960;2022-11-20T06:52:31;4.40;99.90
11280;DHT22;5696;50.928;6.960;2022-11-20T06:54:58;4.40;99.90
11280;DHT22;5696;50.928;6.960;2022-11-20T06:57:23;4.40;99.90
11280;DHT22;5696;50.928;6.960;2022-11-20T06:59:49;4.50;99.90
11280;DHT22;5696;50.928;6.960;2022-11-20T07:02:14;4.50;99.90
11280;DHT22;5696;50.928;6.960;2022-11-20T07:04:40;4.50;99.90
11280;DHT22;5696;50.928;6.960;2022-11-20T07:07:05;4.50;99.90
11280;DHT22;5696;50.928;6.960;2022-11-20T07:09:34;4.40;99.90
11280;DHT22;5696;50.928;6.960;2022-11-20T07:11:59;4.40;99.90
11280;DHT22;5696;50.928;6.960;2022-11-20T07:14:25;4.40;99.90
11280;DHT22;5696;50.928;6.960;2022-11-20T07:16:51;4.40;99.90
11280;DHT22;5696;50.928;6.960;2022-11-20T07:19:16;4.50;99.90
11280;DHT22;5696;50.928;6.960;2022-11-20T07:21:42;4.50;99.90
11280;DHT22;5696;50.928;6.960;2022-11-20T07:24:07;4.50;99.90
11280;DHT22;5696;50.928;6.960;2022-11-20T07:26:33;4.60;99.90
11280;DHT22;5696;50.928;6.960;2022-11-20T07:28:59;4.60;99.90
11280;DHT22;5696;50.928;6.960;2022-11-20T07:31:24;4.60;99.90
11280;DHT22;5696;50.928;6.960;2022-11-20T07:33:50;4.60;99.90
11280;DHT22;5696;50.928;6.960;2022-11-20T07:36:15;4.70;99.90
11280;DHT22;5696;50.928;6.960;2022-11-20T07:38:41;4.70;99.90
11280;DHT22;5696;50.928;6.960;2022-11-20T07:41:06;4.80;99.90
11280;DHT22;5696;50.928;6.960;2022-11-20T07:43:32;4.80;99.90
11280;DHT22;5696;50.928;6.960;2022-11-20T07:45:58;4.90;99.90
11280;DHT22;5696;50.928;6.960;2022-11-20T07:48:25;4.90;99.90
11280;DHT22;5696;50.928;6.960;2022-11-20T07:50:56;5.00;99.90
11280;DHT22;5696;50.928;6.960;2022-11-20T07:53:23;4.90;99.90
11280;DHT22;5696;50.928;6.960;2022-11-20T07:55:49;4.90;99.90
11280;DHT22;5696;50.928;6.960;2022-11-20T07:58:15;4.90;99.90
11280;DHT22;5696;50.928;6.960;2022-11-20T08:00:41;4.90;99.90
11280;DHT22;5696;50.928;6.960;2022-11-20T08:03:07;4.90;99.90
11280;DHT22;5696;50.928;6.960;2022-11-20T08:05:33;4.90;99.90
11280;DHT22;5696;50.928;6.960;2022-11-20T08:07:59;4.90;99.90
11280;DHT22;5696;50.928;6.960;2022-11-20T08:10:24;5.00;99.90
11280;DHT22;5696;50.928;6.960;2022-11-20T08:12:51;5.10;99.90
11280;DHT22;5696;50.928;6.960;2022-11-20T08:15:37;5.20;99.90
11280;DHT22;5696;50.928;6.960;2022-11-20T08:18:08;5.20;99.90
11280;DHT22;5696;50.928;6.960;2022-11-20T08:20:34;5.10;99.90
11280;DHT22;5696;50.928;6.960;2022-11-20T08:23:04;5.10;99.90
11280;DHT22;5696;50.928;6.960;2022-11-20T08:25:32;5.10;99.90
11280;DHT22;5696;50.928;6.960;2022-11-20T08:27:59;5.20;99.90
11280;DHT22;5696;50.928;6.960;2022-11-20T08:30:25;5.20;99.90
11280;DHT22;5696;50.928;6.960;2022-11-20T08:32:51;5.20;99.90
11280;DHT22;5696;50.928;6.960;2022-11-20T08:35:17;5.10;99.90
11280;DHT22;5696;50.928;6.960;2022-11-20T08:37:46;5.20;99.90
11280;DHT22;5696;50.928;6.960;2022-11-20T08:40:12;5.20;99.90
11280;DHT22;5696;50.928;6.960;2022-11-20T08:42:49;5.30;99.90
11280;DHT22;5696;50.928;6.960;2022-11-20T08:45:15;5.30;99.90
11280;DHT22;5696;50.928;6.960;2022-11-20T08:47:42;5.40;99.90
11280;DHT22;5696;50.928;6.960;2022-11-20T08:50:09;5.40;99.90
11280;DHT22;5696;50.928;6.960;2022-11-20T08:52:34;5.40;99.90
11280;DHT22;5696;50.928;6.960;2022-11-20T08:55:00;5.60;99.90
11280;DHT22;5696;50.928;6.960;2022-11-20T08:57:26;5.70;99.90
11280;DHT22;5696;50.928;6.960;2022-11-20T08:59:52;5.70;99.90
11280;DHT22;5696;50.928;6.960;2022-11-20T09:02:17;5.80;99.90
11280;DHT22;5696;50.928;6.960;2022-11-20T09:04:43;5.80;99.90
11280;DHT22;5696;50.928;6.960;2022-11-20T09:07:08;5.80;99.90
11280;DHT22;5696;50.928;6.960;2022-11-20T09:09:34;5.90;99.90
11280;DHT22;5696;50.928;6.960;2022-11-20T09:11:59;5.90;99.90
11280;DHT22;5696;50.928;6.960;2022-11-20T09:14:25;6.00;99.90
11280;DHT22;5696;50.928;6.960;2022-11-20T09:16:55;6.20;99.90
11280;DHT22;5696;50.928;6.960;2022-11-20T09:19:20;6.20;99.90
11280;DHT22;5696;50.928;6.960;2022-11-20T09:21:46;6.10;99.90
11280;DHT22;5696;50.928;6.960;2022-11-20T09:24:12;6.20;99.90
11280;DHT22;5696;50.928;6.960;2022-11-20T09:26:37;6.10;99.90
11280;DHT22;5696;50.928;6.960;2022-11-20T09:29:03;6.20;99.90
11280;DHT22;5696;50.928;6.960;2022-11-20T09:31:28;6.20;99.90
11280;DHT22;5696;50.928;6.960;2022-11-20T09:33:54;6.30;99.90
11280;DHT22;5696;50.928;6.960;2022-11-20T09:36:20;6.40;99.90
11280;DHT22;5696;50.928;6.960;2022-11-20T09:38:46;6.30;99.90
11280;DHT22;5696;50.928;6.960;2022-11-20T09:55:30;6.70;99.90
11280;DHT22;5696;50.928;6.960;2022-11-20T09:57:57;6.70;99.90
11280;DHT22;5696;50.928;6.960;2022-11-20T10:00:24;6.70;99.90
11280;DHT22;5696;50.928;6.960;2022-11-20T10:03:01;6.70;99.90
11280;DHT22;5696;50.928;6.960;2022-11-20T10:05:39;6.70;99.90
11280;DHT22;5696;50.928;6.960;2022-11-20T10:08:13;6.80;99.90
11280;DHT22;5696;50.928;6.960;2022-11-20T10:14:07;6.80;99.90
11280;DHT22;5696;50.928;6.960;2022-11-20T10:19:45;6.70;99.90
11280;DHT22;5696;50.928;6.960;2022-11-20T10:22:46;6.60;99.90
11280;DHT22;5696;50.928;6.960;2022-11-20T10:25:16;6.50;99.90
11280;DHT22;5696;50.928;6.960;2022-11-20T10:28:16;6.40;99.90
11280;DHT22;5696;50.928;6.960;2022-11-20T10:31:02;6.40;99.90
11280;DHT22;5696;50.928;6.960;2022-11-20T10:33:33;6.40;99.90
11280;DHT22;5696;50.928;6.960;2022-11-20T10:38:56;6.30;99.90
11280;DHT22;5696;50.928;6.960;2022-11-20T10:41:27;6.50;99.90
11280;DHT22;5696;50.928;6.960;2022-11-20T10:44:19;6.50;99.90
11280;DHT22;5696;50.928;6.960;2022-11-20T10:47:05;6.60;99.90
11280;DHT22;5696;50.928;6.960;2022-11-20T10:49:34;6.60;99.90
11280;DHT22;5696;50.928;6.960;2022-11-20T10:55:01;6.50;99.90
11280;DHT22;5696;50.928;6.960;2022-11-20T11:02:51;6.50;99.90
11280;DHT22;5696;50.928;6.960;2022-11-20T11:08:28;6.60;99.90
11280;DHT22;5696;50.928;6.960;2022-11-20T11:11:01;6.40;99.90
11280;DHT22;5696;50.928;6.960;2022-11-20T11:13:30;6.40;99.90
11280;DHT22;5696;50.928;6.960;2022-11-20T11:15:56;6.40;99.90
11280;DHT22;5696;50.928;6.960;2022-11-20T11:18:33;6.30;99.90
11280;DHT22;5696;50.928;6.960;2022-11-20T11:21:02;6.30;99.90
11280;DHT22;5696;50.928;6.960;2022-11-20T11:26:00;6.70;99.90
11280;DHT22;5696;50.928;6.960;2022-11-20T11:28:26;6.80;99.90
11280;DHT22;5696;50.928;6.960;2022-11-20T11:30:54;6.90;99.90
11280;DHT22;5696;50.928;6.960;2022-11-20T11:33:31;6.80;99.90
11280;DHT22;5696;50.928;6.960;2022-11-20T11:36:04;6.80;99.90
11280;DHT22;5696;50.928;6.960;2022-11-20T11:38:43;6.90;99.90
11280;DHT22;5696;50.928;6.960;2022-11-20T11:41:18;6.90;99.90
11280;DHT22;5696;50.928;6.960;2022-11-20T11:43:55;6.80;99.90
11280;DHT22;5696;50.928;6.960;2022-11-20T11:46:58;6.90;99.90
11280;DHT22;5696;50.928;6.960;2022-11-20T11:49:23;7.00;99.90
11280;DHT22;5696;50.928;6.960;2022-11-20T11:52:15;6.80;99.90
11280;DHT22;5696;50.928;6.960;2022-11-20T11:54:53;6.70;99.90
11280;DHT22;5696;50.928;6.960;2022-11-20T12:00:10;6.60;99.90
11280;DHT22;5696;50.928;6.960;2022-11-20T12:05:23;6.60;99.90
11280;DHT22;5696;50.928;6.960;2022-11-20T12:08:02;6.70;99.90
11280;DHT22;5696;50.928;6.960;2022-11-20T12:10:47;6.70;99.90
11280;DHT22;5696;50.928;6.960;2022-11-20T12:15:58;6.60;99.90
11280;DHT22;5696;50.928;6.960;2022-11-20T12:18:24;6.80;99.90
11280;DHT22;5696;50.928;6.960;2022-11-20T12:23:28;6.90;99.90
11280;DHT22;5696;50.928;6.960;2022-11-20T12:26:01;6.90;99.90
11280;DHT22;5696;50.928;6.960;2022-11-20T12:36:23;6.90;99.90
11280;DHT22;5696;50.928;6.960;2022-11-20T12:39:02;6.80;99.90
11280;DHT22;5696;50.928;6.960;2022-11-20T12:42:12;6.90;99.90
11280;DHT22;5696;50.928;6.960;2022-11-20T12:48:23;7.00;99.90
11280;DHT22;5696;50.928;6.960;2022-11-20T12:56:41;7.20;99.90
11280;DHT22;5696;50.928;6.960;2022-11-20T13:01:58;7.40;99.90
11280;DHT22;5696;50.928;6.960;2022-11-20T13:07:03;7.60;99.90
11280;DHT22;5696;50.928;6.960;2022-11-20T13:09:32;7.60;99.90
11280;DHT22;5696;50.928;6.960;2022-11-20T13:14:42;7.90;99.90
11280;DHT22;5696;50.928;6.960;2022-11-20T13:17:24;7.80;99.90
11280;DHT22;5696;50.928;6.960;2022-11-20T13:19:56;7.90;99.90
11280;DHT22;5696;50.928;6.960;2022-11-20T13:22:27;7.90;99.90
11280;DHT22;5696;50.928;6.960;2022-11-20T13:24:53;7.80;99.90
11280;DHT22;5696;50.928;6.960;2022-11-20T13:27:21;7.90;99.90
11280;DHT22;5696;50.928;6.960;2022-11-20T13:30:12;7.90;99.90
11280;DHT22;5696;50.928;6.960;2022-11-20T13:32:51;8.00;99.90
11280;DHT22;5696;50.928;6.960;2022-11-20T13:35:35;8.10;99.90
11280;DHT22;5696;50.928;6.960;2022-11-20T13:38:13;7.90;99.90
11280;DHT22;5696;50.928;6.960;2022-11-20T13:41:01;7.90;99.90
11280;DHT22;5696;50.928;6.960;2022-11-20T13:43:51;7.80;99.90
11280;DHT22;5696;50.928;6.960;2022-11-20T13:46:17;7.70;99.90
11280;DHT22;5696;50.928;6.960;2022-11-20T13:48:50;7.50;99.90
11280;DHT22;5696;50.928;6.960;2022-11-20T13:51:25;7.40;99.90
11280;DHT22;5696;50.928;6.960;2022-11-20T14:01:54;7.50;99.90
11280;DHT22;5696;50.928;6.960;2022-11-20T14:04:28;7.50;99.90
11280;DHT22;5696;50.928;6.960;2022-11-20T14:06:54;7.50;99.90
11280;DHT22;5696;50.928;6.960;2022-11-20T14:09:33;7.50;99.90
11280;DHT22;5696;50.928;6.960;2022-11-20T14:12:02;7.50;99.90
11280;DHT22;5696;50.928;6.960;2022-11-20T14:14:29;7.50;99.90
11280;DHT22;5696;50.928;6.960;2022-11-20T14:17:15;7.40;99.90
11280;DHT22;5696;50.928;6.960;2022-11-20T14:19:48;7.30;99.90
11280;DHT22;5696;50.928;6.960;2022-11-20T14:22:24;7.30;99.90
11280;DHT22;5696;50.928;6.960;2022-11-20T14:27:41;7.40;99.90
11280;DHT22;5696;50.928;6.960;2022-11-20T14:30:20;7.30;99.90
11280;DHT22;5696;50.928;6.960;2022-11-20T14:32:47;7.30;99.90
11280;DHT22;5696;50.928;6.960;2022-11-20T14:35:26;7.40;99.90
11280;DHT22;5696;50.928;6.960;2022-11-20T14:37:52;7.30;99.90
11280;DHT22;5696;50.928;6.960;2022-11-20T14:42:49;7.40;99.90
11280;DHT22;5696;50.928;6.960;2022-11-20T14:45:15;7.40;99.90
11280;DHT22;5696;50.928;6.960;2022-11-20T14:47:42;7.30;99.90
11280;DHT22;5696;50.928;6.960;2022-11-20T14:50:20;7.30;99.90
11280;DHT22;5696;50.928;6.960;2022-11-20T14:52:51;7.30;99.90
11280;DHT22;5696;50.928;6.960;2022-11-20T14:57:59;7.40;99.90
11280;DHT22;5696;50.928;6.960;2022-11-20T15:00:26;7.30;99.90
11280;DHT22;5696;50.928;6.960;2022-11-20T15:02:52;7.30;99.90
11280;DHT22;5696;50.928;6.960;2022-11-20T15:05:20;7.20;99.90
11280;DHT22;5696;50.928;6.960;2022-11-20T15:08:03;7.20;99.90
11280;DHT22;5696;50.928;6.960;2022-11-20T15:10:29;7.20;99.90
11280;DHT22;5696;50.928;6.960;2022-11-20T15:13:00;7.20;99.90
11280;DHT22;5696;50.928;6.960;2022-11-20T15:15:46;7.20;99.90
11280;DHT22;5696;50.928;6.960;2022-11-20T15:18:14;7.20;99.90
11280;DHT22;5696;50.928;6.960;2022-11-20T15:20:41;7.20;99.90
11280;DHT22;5696;50.928;6.960;2022-11-20T15:23:15;7.20;99.90
11280;DHT22;5696;50.928;6.960;2022-11-20T15:25:43;7.10;99.90
11280;DHT22;5696;50.928;6.960;2022-11-20T15:28:41;7.00;99.90
11280;DHT22;5696;50.928;6.960;2022-11-20T15:31:11;7.10;99.90
11280;DHT22;5696;50.928;6.960;2022-11-20T15:33:37;7.10;99.90
11280;DHT22;5696;50.928;6.960;2022-11-20T15:36:03;7.10;99.90
11280;DHT22;5696;50.928;6.960;2022-11-20T15:38:29;7.10;99.90
11280;DHT22;5696;50.928;6.960;2022-11-20T15:40:55;7.00;99.90
11280;DHT22;5696;50.928;6.960;2022-11-20T15:43:20;7.00;99.90
11280;DHT22;5696;50.928;6.960;2022-11-20T15:45:51;7.10;99.90
11280;DHT22;5696;50.928;6.960;2022-11-20T15:48:25;7.10;99.90
11280;DHT22;5696;50.928;6.960;2022-11-20T15:53:38;7.00;99.90
11280;DHT22;5696;50.928;6.960;2022-11-20T15:56:04;7.10;99.90
11280;DHT22;5696;50.928;6.960;2022-11-20T15:58:30;7.10;99.90
11280;DHT22;5696;50.928;6.960;2022-11-20T16:00:56;7.10;99.90
11280;DHT22;5696;50.928;6.960;2022-11-20T16:03:22;7.20;99.90
11280;DHT22;5696;50.928;6.960;2022-11-20T16:05:47;7.20;99.90
11280;DHT22;5696;50.928;6.960;2022-11-20T16:08:13;7.20;99.90
11280;DHT22;5696;50.928;6.960;2022-11-20T16:10:39;7.30;99.90
11280;DHT22;5696;50.928;6.960;2022-11-20T16:13:12;7.30;99.90
11280;DHT22;5696;50.928;6.960;2022-11-20T16:15:58;7.30;99.90
11280;DHT22;5696;50.928;6.960;2022-11-20T16:18:24;7.30;99.90
11280;DHT22;5696;50.928;6.960;2022-11-20T16:20:52;7.30;99.90
11280;DHT22;5696;50.928;6.960;2022-11-20T16:23:18;7.30;99.90
11280;DHT22;5696;50.928;6.960;2022-11-20T16:25:44;7.30;99.90
11280;DHT22;5696;50.928;6.960;2022-11-20T16:28:10;7.40;99.90
11280;DHT22;5696;50.928;6.960;2022-11-20T16:30:36;7.40;99.90
11280;DHT22;5696;50.928;6.960;2022-11-20T16:33:02;7.40;99.90
11280;DHT22;5696;50.928;6.960;2022-11-20T16:35:29;7.40;99.90
11280;DHT22;5696;50.928;6.960;2022-11-20T16:37:56;7.40;99.90
11280;DHT22;5696;50.928;6.960;2022-11-20T16:40:24;7.40;99.90
11280;DHT22;5696;50.928;6.960;2022-11-20T16:42:50;7.40;99.90
11280;DHT22;5696;50.928;6.960;2022-11-20T16:45:16;7.30;99.90
11280;DHT22;5696;50.928;6.960;2022-11-20T16:47:42;7.30;99.90
11280;DHT22;5696;50.928;6.960;2022-11-20T16:50:08;7.30;99.90
11280;DHT22;5696;50.928;6.960;2022-11-20T16:52:33;7.20;99.90
11280;DHT22;5696;50.928;6.960;2022-11-20T16:54:59;7.20;99.90
11280;DHT22;5696;50.928;6.960;2022-11-20T16:57:28;7.20;99.90
11280;DHT22;5696;50.928;6.960;2022-11-20T16:59:54;7.20;99.90
11280;DHT22;5696;50.928;6.960;2022-11-20T17:02:20;7.10;99.90
11280;DHT22;5696;50.928;6.960;2022-11-20T17:04:45;7.10;99.90
11280;DHT22;5696;50.928;6.960;2022-11-20T17:07:11;7.10;99.90
11280;DHT22;5696;50.928;6.960;2022-11-20T17:09:37;7.10;99.90
11280;DHT22;5696;50.928;6.960;2022-11-20T17:12:04;7.20;99.90
11280;DHT22;5696;50.928;6.960;2022-11-20T17:14:30;7.20;99.90
11280;DHT22;5696;50.928;6.960;2022-11-20T17:16:55;7.20;99.90
11280;DHT22;5696;50.928;6.960;2022-11-20T17:19:21;7.30;99.90
11280;DHT22;5696;50.928;6.960;2022-11-20T17:21:46;7.20;99.90
11280;DHT22;5696;50.928;6.960;2022-11-20T17:24:12;7.20;99.90
11280;DHT22;5696;50.928;6.960;2022-11-20T17:26:41;7.20;99.90
11280;DHT22;5696;50.928;6.960;2022-11-20T17:29:13;7.20;99.90
11280;DHT22;5696;50.928;6.960;2022-11-20T17:31:40;7.20;99.90
11280;DHT22;5696;50.928;6.960;2022-11-20T17:34:07;7.20;99.90
11280;DHT22;5696;50.928;6.960;2022-11-20T17:36:35;7.20;99.90
11280;DHT22;5696;50.928;6.960;2022-11-20T17:39:01;7.20;99.90
11280;DHT22;5696;50.928;6.960;2022-11-20T17:41:28;7.20;99.90
11280;DHT22;5696;50.928;6.960;2022-11-20T17:43:59;7.10;99.90
11280;DHT22;5696;50.928;6.960;2022-11-20T17:46:27;7.20;99.90
11280;DHT22;5696;50.928;6.960;2022-11-20T17:48:54;7.20;99.90
11280;DHT22;5696;50.928;6.960;2022-11-20T17:51:21;7.10;99.90
11280;DHT22;5696;50.928;6.960;2022-11-20T17:53:58;7.10;99.90
11280;DHT22;5696;50.928;6.960;2022-11-20T17:56:26;7.10;99.90
11280;DHT22;5696;50.928;6.960;2022-11-20T17:59:14;7.10;99.90
11280;DHT22;5696;50.928;6.960;2022-11-20T18:01:40;7.10;99.90
11280;DHT22;5696;50.928;6.960;2022-11-20T18:04:09;7.10;99.90
11280;DHT22;5696;50.928;6.960;2022-11-20T18:06:35;7.10;99.90
11280;DHT22;5696;50.928;6.960;2022-11-20T18:09:02;7.10;99.90
11280;DHT22;5696;50.928;6.960;2022-11-20T18:11:30;7.00;99.90
11280;DHT22;5696;50.928;6.960;2022-11-20T18:13:59;7.00;99.90
11280;DHT22;5696;50.928;6.960;2022-11-20T18:16:49;7.10;99.90
11280;DHT22;5696;50.928;6.960;2022-11-20T18:19:18;7.10;99.90
11280;DHT22;5696;50.928;6.960;2022-11-20T18:21:44;7.10;99.90
11280;DHT22;5696;50.928;6.960;2022-11-20T18:24:10;7.00;99.90
11280;DHT22;5696;50.928;6.960;2022-11-20T18:26:36;7.00;99.90
11280;DHT22;5696;50.928;6.960;2022-11-20T18:29:01;7.10;99.90
11280;DHT22;5696;50.928;6.960;2022-11-20T18:31:27;7.20;99.90
11280;DHT22;5696;50.928;6.960;2022-11-20T18:33:52;7.20;99.90
11280;DHT22;5696;50.928;6.960;2022-11-20T18:36:25;7.30;99.90
11280;DHT22;5696;50.928;6.960;2022-11-20T18:38:52;7.30;99.90
11280;DHT22;5696;50.928;6.960;2022-11-20T18:41:21;7.30;99.90
11280;DHT22;5696;50.928;6.960;2022-11-20T18:44:11;7.40;99.90
11280;DHT22;5696;50.928;6.960;2022-11-20T18:46:55;7.40;99.90
11280;DHT22;5696;50.928;6.960;2022-11-20T18:49:21;7.40;99.90
11280;DHT22;5696;50.928;6.960;2022-11-20T18:51:46;7.50;99.90
11280;DHT22;5696;50.928;6.960;2022-11-20T18:54:12;7.50;99.90
11280;DHT22;5696;50.928;6.960;2022-11-20T18:56:38;7.50;99.90
11280;DHT22;5696;50.928;6.960;2022-11-20T18:59:06;7.60;99.90
11280;DHT22;5696;50.928;6.960;2022-11-20T19:01:32;7.50;99.90
11280;DHT22;5696;50.928;6.960;2022-11-20T19:03:58;7.50;99.90
11280;DHT22;5696;50.928;6.960;2022-11-20T19:06:25;7.50;99.90
11280;DHT22;5696;50.928;6.960;2022-11-20T19:08:51;7.60;99.90
11280;DHT22;5696;50.928;6.960;2022-11-20T19:11:18;7.60;99.90
11280;DHT22;5696;50.928;6.960;2022-11-20T19:13:44;7.60;99.90
11280;DHT22;5696;50.928;6.960;2022-11-20T19:16:16;7.60;99.90
11280;DHT22;5696;50.928;6.960;2022-11-20T19:18:42;7.60;99.90
11280;DHT22;5696;50.928;6.960;2022-11-20T19:21:10;7.70;99.90
11280;DHT22;5696;50.928;6.960;2022-11-20T19:23:35;7.70;99.90
11280;DHT22;5696;50.928;6.960;2022-11-20T19:26:01;7.70;99.90
11280;DHT22;5696;50.928;6.960;2022-11-20T19:28:34;7.80;99.90
11280;DHT22;5696;50.928;6.960;2022-11-20T19:33:30;8.00;99.90
11280;DHT22;5696;50.928;6.960;2022-11-20T19:35:56;8.10;99.90
11280;DHT22;5696;50.928;6.960;2022-11-20T19:38:23;8.10;99.90
11280;DHT22;5696;50.928;6.960;2022-11-20T19:40:49;8.20;99.90
11280;DHT22;5696;50.928;6.960;2022-11-20T19:43:15;8.20;99.90
11280;DHT22;5696;50.928;6.960;2022-11-20T19:45:42;8.30;99.90
11280;DHT22;5696;50.928;6.960;2022-11-20T19:48:07;8.30;99.90
11280;DHT22;5696;50.928;6.960;2022-11-20T19:50:33;8.40;99.90
11280;DHT22;5696;50.928;6.960;2022-11-20T19:52:58;8.50;99.90
11280;DHT22;5696;50.928;6.960;2022-11-20T19:55:24;8.50;99.90
11280;DHT22;5696;50.928;6.960;2022-11-20T19:57:50;8.50;99.90
11280;DHT22;5696;50.928;6.960;2022-11-20T20:00:16;8.50;99.90
11280;DHT22;5696;50.928;6.960;2022-11-20T20:02:42;8.60;99.90
11280;DHT22;5696;50.928;6.960;2022-11-20T20:05:07;8.60;99.90
11280;DHT22;5696;50.928;6.960;2022-11-20T20:07:33;8.60;99.90
11280;DHT22;5696;50.928;6.960;2022-11-20T20:09:58;8.70;99.90
11280;DHT22;5696;50.928;6.960;2022-11-20T20:12:24;8.70;99.90
11280;DHT22;5696;50.928;6.960;2022-11-20T20:14:50;8.80;99.90
11280;DHT22;5696;50.928;6.960;2022-11-20T20:17:15;8.70;99.90
11280;DHT22;5696;50.928;6.960;2022-11-20T20:19:41;8.70;99.90
11280;DHT22;5696;50.928;6.960;2022-11-20T20:22:06;8.80;99.90
11280;DHT22;5696;50.928;6.960;2022-11-20T20:24:32;8.80;99.90
11280;DHT22;5696;50.928;6.960;2022-11-20T20:26:57;8.80;99.90
11280;DHT22;5696;50.928;6.960;2022-11-20T20:29:23;8.80;99.90
11280;DHT22;5696;50.928;6.960;2022-11-20T20:31:48;8.80;99.90
11280;DHT22;5696;50.928;6.960;2022-11-20T20:34:15;8.80;99.90
11280;DHT22;5696;50.928;6.960;2022-11-20T20:36:40;8.80;99.90
11280;DHT22;5696;50.928;6.960;2022-11-20T20:39:06;8.80;99.90
11280;DHT22;5696;50.928;6.960;2022-11-20T20:41:31;8.90;99.90
11280;DHT22;5696;50.928;6.960;2022-11-20T20:43:57;8.90;99.90
11280;DHT22;5696;50.928;6.960;2022-11-20T20:46:41;8.90;99.90
11280;DHT22;5696;50.928;6.960;2022-11-20T20:49:08;8.90;99.90
11280;DHT22;5696;50.928;6.960;2022-11-20T20:51:34;8.90;99.90
11280;DHT22;5696;50.928;6.960;2022-11-20T20:54:00;8.90;99.90
11280;DHT22;5696;50.928;6.960;2022-11-20T20:56:25;8.90;99.90
11280;DHT22;5696;50.928;6.960;2022-11-20T20:58:51;9.00;99.90
11280;DHT22;5696;50.928;6.960;2022-11-20T21:01:18;9.00;99.90
11280;DHT22;5696;50.928;6.960;2022-11-20T21:03:44;9.00;99.90
11280;DHT22;5696;50.928;6.960;2022-11-20T21:06:10;9.00;99.90
11280;DHT22;5696;50.928;6.960;2022-11-20T21:08:38;9.00;99.90
11280;DHT22;5696;50.928;6.960;2022-11-20T21:11:06;9.00;99.90
11280;DHT22;5696;50.928;6.960;2022-11-20T21:13:32;9.00;99.90
11280;DHT22;5696;50.928;6.960;2022-11-20T21:15:58;8.90;99.90
11280;DHT22;5696;50.928;6.960;2022-11-20T21:18:24;8.90;99.90
11280;DHT22;5696;50.928;6.960;2022-11-20T21:20:50;8.90;99.90
11280;DHT22;5696;50.928;6.960;2022-11-20T21:23:35;8.90;99.90
11280;DHT22;5696;50.928;6.960;2022-11-20T21:26:03;8.80;99.90
11280;DHT22;5696;50.928;6.960;2022-11-20T21:28:34;8.80;99.90
11280;DHT22;5696;50.928;6.960;2022-11-20T21:31:06;8.80;99.90
11280;DHT22;5696;50.928;6.960;2022-11-20T21:33:40;8.80;99.90
11280;DHT22;5696;50.928;6.960;2022-11-20T21:36:07;8.80;99.90
11280;DHT22;5696;50.928;6.960;2022-11-20T21:38:34;8.70;99.90
11280;DHT22;5696;50.928;6.960;2022-11-20T21:41:01;8.70;99.90
11280;DHT22;5696;50.928;6.960;2022-11-20T21:43:27;8.70;99.90
11280;DHT22;5696;50.928;6.960;2022-11-20T21:45:52;8.70;99.90
11280;DHT22;5696;50.928;6.960;2022-11-20T21:48:21;8.70;99.90
11280;DHT22;5696;50.928;6.960;2022-11-20T21:50:47;8.60;99.90
11280;DHT22;5696;50.928;6.960;2022-11-20T21:53:13;8.60;99.90
11280;DHT22;5696;50.928;6.960;2022-11-20T21:55:39;8.70;99.90
11280;DHT22;5696;50.928;6.960;2022-11-20T21:58:04;8.60;99.90
11280;DHT22;5696;50.928;6.960;2022-11-20T22:00:30;8.60;99.90
11280;DHT22;5696;50.928;6.960;2022-11-20T22:02:55;8.60;99.90
11280;DHT22;5696;50.928;6.960;2022-11-20T22:05:21;8.60;99.90
11280;DHT22;5696;50.928;6.960;2022-11-20T22:07:47;8.60;99.90
11280;DHT22;5696;50.928;6.960;2022-11-20T22:10:12;8.60;99.90
11280;DHT22;5696;50.928;6.960;2022-11-20T22:12:38;8.60;99.90
11280;DHT22;5696;50.928;6.960;2022-11-20T22:15:04;8.60;99.90
11280;DHT22;5696;50.928;6.960;2022-11-20T22:17:29;8.60;99.90
11280;DHT22;5696;50.928;6.960;2022-11-20T22:20:16;8.60;99.90
11280;DHT22;5696;50.928;6.960;2022-11-20T22:22:42;8.50;99.90
11280;DHT22;5696;50.928;6.960;2022-11-20T22:25:07;8.60;99.90
11280;DHT22;5696;50.928;6.960;2022-11-20T22:27:33;8.40;99.90
11280;DHT22;5696;50.928;6.960;2022-11-20T22:29:59;8.40;99.90
11280;DHT22;5696;50.928;6.960;2022-11-20T22:32:24;8.40;99.90
11280;DHT22;5696;50.928;6.960;2022-11-20T22:34:50;8.40;99.90
11280;DHT22;5696;50.928;6.960;2022-11-20T22:37:15;8.40;99.90
11280;DHT22;5696;50.928;6.960;2022-11-20T22:39:41;8.40;99.90
11280;DHT22;5696;50.928;6.960;2022-11-20T22:42:06;8.30;99.90
11280;DHT22;5696;50.928;6.960;2022-11-20T22:44:32;8.30;99.90
11280;DHT22;5696;50.928;6.960;2022-11-20T22:46:58;8.30;99.90
11280;DHT22;5696;50.928;6.960;2022-11-20T22:49:23;8.30;99.90
11280;DHT22;5696;50.928;6.960;2022-11-20T22:51:49;8.30;99.90
11280;DHT22;5696;50.928;6.960;2022-11-20T22:54:14;8.30;99.90
11280;DHT22;5696;50.928;6.960;2022-11-20T22:56:40;8.40;99.90
11280;DHT22;5696;50.928;6.960;2022-11-20T22:59:06;8.30;99.90
11280;DHT22;5696;50.928;6.960;2022-11-20T23:01:33;8.30;99.90
11280;DHT22;5696;50.928;6.960;2022-11-20T23:04:05;8.30;99.90
11280;DHT22;5696;50.928;6.960;2022-11-20T23:06:31;8.30;99.90
